Kezdőlap
METAR-TAF:

METAR-TAF

Repülőterek :

Kajaani, Finnország

földrajzi szélesség: 64-17N, földrajzi hosszúság: 027-41E, magasság: 143 m

Jelenlegi meteorológiai megfigyelések

A jelentés 18 perccel ezelõtt készült, 21:20 UTC
Keleti szél 8 kt
Hőmérséklet 1°C
Páratartalom 100%
Légköri nyomás 1028 hPa
Látótávolság 10 km, vagy több
Borult 200 lábon

METAR: EFKI 182120Z AUTO 10008KT 9999 OVC002 01/01 Q1028

Idő: 23:38 (21:38 UTC)

Előrejelzés

A jelentés 4 órával és 2 perccel ezelõtt készült, 17:36 UTC
Az előrejelzés 18-én 18 óra UTC és 18-én 22 óra UTC között érvényes
Kelet-délkeleti szél 6 kt
Látótávolság: 2000 m
Borult 100 lábon
Párásság
18-én 18 óra UTC és 18-én 22 óra UTC között ideiglenes
Látótávolság: 0500 m
200 lábon
köd

TAF: EFKI 181736Z 1818/1822 12006KT 2000 BR OVC001 TEMPO 1818/1822 0500 FG VV002

Meteorológiai megfigyelések és előrejelzések több, mint 4000 repülőtéren (METAR és TAF jelentéseket).

A térképen piros és sárga pontok jelzik az elérhető meteorológiai állomásokat.

Mozgassa az egeret a pont fölött, hogy megjelenjen az állomás neve.

Azután kattintson az időjárási megfigyelések és előrejelzések megtekintéséhez.

A térkép megváltoztatása: kattintson a fekete keresztel jelölt zöld gombra ráközelítéshez, a vonallal jelölt zöld gombra távolításhoz, vagy a zöld nyilakra a szomszédos térképek eléréséhez.


METAR-TAF: